Jezebel — WDG6709 — position and weather

sailwx.info

Track history (hours):
 
Tides and Currents Weather Stations Pressure Air Temp Water Temp Dewpoint Dewpoint Depression Visibility Wind Speed Wind Dir Waves Ship Positions

Jezebel

Owner: MARINE TECHNOLOGIES INC, BALTIMORE, MD. More information available from US FCC via Universal Licensing System and Coast Guard Vessel Documentation Center.

Last reported at 2018-Jun-25 15:30 UTC. Time now 2018-Jun-25 15:55 UTC.
Position N 39°13' W 076°35'.

Length 16 m; draft 2 m.

Type: Tug. MMSI: 367559860.

Date/timePositionNaut miles runAvg speedWind from/ knotsBaromVisibWave heightAir tempDewpointWater temp
2018-Jun-25 15:30N 39°13' W 076°35'0 0.4
2018-Jun-25 14:50N 39°13' W 076°35'0 0.0
2018-Jun-25 14:21N 39°13' W 076°35'0 0.0
2018-Jun-25 13:46N 39°13' W 076°35'0 0.0
2018-Jun-25 13:30N 39°13' W 076°35'0 0.4
2018-Jun-25 13:00N 39°13' W 076°35'0 0.1
2018-Jun-25 12:30N 39°13' W 076°35'0 0.5
2018-Jun-25 11:59N 39°13' W 076°35'  
2018-Jun-22 12:02N 39°18' W 076°23'0 0.0
2018-Jun-22 11:33N 39°18' W 076°23'0 0.0
2018-Jun-22 11:30N 39°18' W 076°23'1 2.4
2018-Jun-22 11:01N 39°17' W 076°22'3 6.5
2018-Jun-22 10:30N 39°15' W 076°19'3 6.1
2018-Jun-22 09:59N 39°13' W 076°22'3 6.8
2018-Jun-22 09:30N 39°11' W 076°25'3 6.5
2018-Jun-22 09:00N 39°12' W 076°29'3 6.6
2018-Jun-22 08:30N 39°13' W 076°33'2 3.3
2018-Jun-22 08:00N 39°13' W 076°35'0 0.0
2018-Jun-21 18:36N 39°13' W 076°35'0 0.6
2018-Jun-21 18:30N 39°13' W 076°35'0 0.0
2018-Jun-21 17:56N 39°13' W 076°35'0 0.0
2018-Jun-21 16:15N 39°13' W 076°35'0 1.1
2018-Jun-21 16:01N 39°13' W 076°35'0 0.0
2018-Jun-20 18:26N 39°13' W 076°35'0 0.6
2018-Jun-20 18:00N 39°13' W 076°35'0 0.4
2018-Jun-20 17:30N 39°13' W 076°35'0 0.4
2018-Jun-20 17:00N 39°13' W 076°35'0 0.0
2018-Jun-20 16:30N 39°13' W 076°35'0 0.4
2018-Jun-20 16:00N 39°13' W 076°35'0 0.4
2018-Jun-20 15:30N 39°13' W 076°35'  
2018-Jun-15 19:30N 39°13' W 076°35'0 0.1
2018-Jun-15 18:34N 39°13' W 076°35'0 0.0
2018-Jun-15 18:20N 39°13' W 076°35'0 0.0
2018-Jun-15 17:50N 39°13' W 076°35'0 0.0
2018-Jun-15 17:29N 39°13' W 076°35'0 0.0
2018-Jun-15 16:58N 39°13' W 076°35'0 0.0
2018-Jun-15 16:13N 39°13' W 076°35'0 0.2
2018-Jun-15 16:00N 39°13' W 076°35'  
Track history (hours):
 
Tides and Currents Weather Stations Pressure Air Temp Water Temp Dewpoint Dewpoint Depression Visibility Wind Speed Wind Dir Waves Ship Positions

Jezebel

Owner: MARINE TECHNOLOGIES INC, BALTIMORE, MD. More information available from US FCC via Universal Licensing System and Coast Guard Vessel Documentation Center.

Last reported at 2018-Jun-25 15:30 UTC. Time now 2018-Jun-25 15:55 UTC.
Position N 39°13' W 076°35'.

Length 16 m; draft 2 m.

Type: Tug. MMSI: 367559860.

Date/timePositionNaut miles runAvg speedWind from/ knotsBaromVisibWave heightAir tempDewpointWater temp
2018-Jun-25 15:30N 39°13' W 076°35'0 0.4
2018-Jun-25 14:50N 39°13' W 076°35'0 0.0
2018-Jun-25 14:21N 39°13' W 076°35'0 0.0
2018-Jun-25 13:46N 39°13' W 076°35'0 0.0
2018-Jun-25 13:30N 39°13' W 076°35'0 0.4
2018-Jun-25 13:00N 39°13' W 076°35'0 0.1
2018-Jun-25 12:30N 39°13' W 076°35'0 0.5
2018-Jun-25 11:59N 39°13' W 076°35'  
2018-Jun-22 12:02N 39°18' W 076°23'0 0.0
2018-Jun-22 11:33N 39°18' W 076°23'0 0.0
2018-Jun-22 11:30N 39°18' W 076°23'1 2.4
2018-Jun-22 11:01N 39°17' W 076°22'3 6.5
2018-Jun-22 10:30N 39°15' W 076°19'3 6.1
2018-Jun-22 09:59N 39°13' W 076°22'3 6.8
2018-Jun-22 09:30N 39°11' W 076°25'3 6.5
2018-Jun-22 09:00N 39°12' W 076°29'3 6.6
2018-Jun-22 08:30N 39°13' W 076°33'2 3.3
2018-Jun-22 08:00N 39°13' W 076°35'0 0.0
2018-Jun-21 18:36N 39°13' W 076°35'0 0.6
2018-Jun-21 18:30N 39°13' W 076°35'0 0.0
2018-Jun-21 17:56N 39°13' W 076°35'0 0.0
2018-Jun-21 16:15N 39°13' W 076°35'0 1.1
2018-Jun-21 16:01N 39°13' W 076°35'0 0.0
2018-Jun-20 18:26N 39°13' W 076°35'0 0.6
2018-Jun-20 18:00N 39°13' W 076°35'0 0.4
2018-Jun-20 17:30N 39°13' W 076°35'0 0.4
2018-Jun-20 17:00N 39°13' W 076°35'0 0.0
2018-Jun-20 16:30N 39°13' W 076°35'0 0.4
2018-Jun-20 16:00N 39°13' W 076°35'0 0.4
2018-Jun-20 15:30N 39°13' W 076°35'  
2018-Jun-15 19:30N 39°13' W 076°35'0 0.1
2018-Jun-15 18:34N 39°13' W 076°35'0 0.0
2018-Jun-15 18:20N 39°13' W 076°35'0 0.0
2018-Jun-15 17:50N 39°13' W 076°35'0 0.0
2018-Jun-15 17:29N 39°13' W 076°35'0 0.0
2018-Jun-15 16:58N 39°13' W 076°35'0 0.0
2018-Jun-15 16:13N 39°13' W 076°35'0 0.2
2018-Jun-15 16:00N 39°13' W 076°35'  

Dump ship's entire track history